Time;durP1;ratioP1;P1;durP2;ratioP2;P2;SDS_P1;SDS_P2;PMS_P1;PMS_P2;Temp;Humidity;BMP_temperature;BMP_pressure;BME280_temperature;BME280_humidity;BME280_pressure;Samples;Min_cycle;Max_cycle;Signal;HPM_P1;HPM_P2
2024/03/06 00:00:16;;;;;;;22.98;13.18;;;;;;;;;;5043708;28;20087;-65
2024/03/06 00:02:42;;;;;;;17.35;11.13;;;;;;;;;;5025212;28;20147;-65
2024/03/06 00:05:09;;;;;;;19.38;11.68;;;;;;;;;;5040944;28;20056;-65
2024/03/06 00:07:35;;;;;;;18.80;11.48;;;;;;;;;;5023879;28;20045;-65
2024/03/06 00:10:01;;;;;;;17.95;11.25;;;;;;;;;;5026031;28;20037;-65
2024/03/06 00:12:28;;;;;;;17.38;10.45;;;;;;;;;;5029768;28;20060;-65
2024/03/06 00:14:54;;;;;;;19.33;10.70;;;;;;;;;;5027466;28;20049;-65
2024/03/06 00:17:20;;;;;;;17.65;10.18;;;;;;;;;;5025082;28;20045;-65
2024/03/06 00:19:46;;;;;;;21.88;10.63;;;;;;;;;;5020379;28;20045;-65
2024/03/06 00:22:13;;;;;;;19.05;10.63;;;;;;;;;;5022268;28;20075;-65
2024/03/06 00:24:39;;;;;;;19.85;10.65;;;;;;;;;;5025543;28;20050;-65
2024/03/06 00:27:05;;;;;;;17.85;10.70;;;;;;;;;;5041257;28;20053;-65
2024/03/06 00:29:32;;;;;;;19.00;10.85;;;;;;;;;;5016412;28;20277;-65
2024/03/06 00:31:58;;;;;;;18.63;10.93;;;;;;;;;;5016514;28;20057;-65
2024/03/06 00:34:24;;;;;;;18.85;10.43;;;;;;;;;;5024683;28;20041;-65
2024/03/06 00:36:51;;;;;;;17.80;10.52;;;;;;;;;;5023865;28;20401;-65
2024/03/06 00:39:17;;;;;;;16.83;11.00;;;;;;;;;;5023636;28;20045;-65
2024/03/06 00:41:43;;;;;;;18.15;11.18;;;;;;;;;;5023050;28;20098;-65
2024/03/06 00:44:09;;;;;;;19.92;11.52;;;;;;;;;;5026242;28;20350;-65
2024/03/06 00:46:35;;;;;;;22.73;11.23;;;;;;;;;;5024118;28;20052;-65
2024/03/06 00:49:01;;;;;;;16.90;10.02;;;;;;;;;;5015998;28;20539;-65
2024/03/06 00:51:28;;;;;;;19.70;10.32;;;;;;;;;;5018166;28;20057;-65
2024/03/06 00:53:54;;;;;;;17.13;10.65;;;;;;;;;;5014862;28;20108;-65
2024/03/06 00:56:20;;;;;;;21.58;10.77;;;;;;;;;;5018067;28;20059;-65
2024/03/06 00:58:47;;;;;;;19.52;11.52;;;;;;;;;;5017040;28;20049;-65
2024/03/06 01:01:13;;;;;;;19.83;11.63;;;;;;;;;;5014884;28;20053;-65
2024/03/06 01:03:39;;;;;;;24.50;11.82;;;;;;;;;;5016780;28;20052;-65
2024/03/06 01:06:05;;;;;;;25.48;11.20;;;;;;;;;;5034222;28;20099;-65
2024/03/06 01:08:31;;;;;;;20.00;11.68;;;;;;;;;;5016205;28;20079;-65
2024/03/06 01:10:58;;;;;;;20.17;11.68;;;;;;;;;;5018386;28;20050;-65
2024/03/06 01:13:24;;;;;;;18.20;10.95;;;;;;;;;;5015850;28;20145;-65
2024/03/06 01:15:50;;;;;;;17.40;11.18;;;;;;;;;;5018478;28;20041;-65
2024/03/06 01:18:16;;;;;;;17.48;9.70;;;;;;;;;;5021794;28;20485;-65
2024/03/06 01:20:43;;;;;;;22.10;11.02;;;;;;;;;;5018769;28;20076;-65
2024/03/06 01:23:09;;;;;;;18.58;10.65;;;;;;;;;;5024660;28;20053;-64
2024/03/06 01:25:35;;;;;;;18.63;10.10;;;;;;;;;;5015590;28;20792;-65
2024/03/06 01:28:01;;;;;;;15.32;9.63;;;;;;;;;;5014991;28;20052;-65
2024/03/06 01:30:28;;;;;;;20.10;11.05;;;;;;;;;;5015115;28;20054;-65
2024/03/06 01:32:54;;;;;;;16.83;9.82;;;;;;;;;;5015541;28;20878;-65
2024/03/06 01:35:20;;;;;;;16.33;9.85;;;;;;;;;;5014842;28;20049;-64
2024/03/06 01:37:46;;;;;;;16.38;9.95;;;;;;;;;;5015070;28;20167;-65
2024/03/06 01:40:13;;;;;;;19.70;9.98;;;;;;;;;;5020468;28;20096;-65
2024/03/06 01:42:39;;;;;;;18.17;10.07;;;;;;;;;;5000633;28;20505;-65
2024/03/06 01:45:05;;;;;;;19.77;10.38;;;;;;;;;;5019440;28;20044;-65
2024/03/06 01:47:31;;;;;;;18.75;10.43;;;;;;;;;;5020945;28;20468;-65
2024/03/06 01:49:58;;;;;;;23.75;12.32;;;;;;;;;;5024656;28;20048;-65
2024/03/06 01:52:24;;;;;;;20.23;9.80;;;;;;;;;;5005424;28;20087;-65
2024/03/06 01:54:51;;;;;;;24.42;10.55;;;;;;;;;;5022110;28;20489;-65
2024/03/06 01:57:18;;;;;;;17.48;9.88;;;;;;;;;;5024521;28;20050;-65
2024/03/06 01:59:44;;;;;;;21.92;10.90;;;;;;;;;;5041417;28;20065;-65
2024/03/06 02:02:12;;;;;;;21.35;10.98;;;;;;;;;;5020792;28;20037;-65
2024/03/06 02:04:39;;;;;;;19.48;10.77;;;;;;;;;;5020470;28;20188;-65
2024/03/06 02:07:11;;;;;;;21.33;10.82;;;;;;;;;;5023486;28;20050;-65
2024/03/06 02:09:37;;;;;;;19.48;10.20;;;;;;;;;;5025053;28;20109;-65
2024/03/06 02:12:04;;;;;;;18.38;11.80;;;;;;;;;;5019534;28;20049;-65
2024/03/06 02:14:30;;;;;;;20.30;11.43;;;;;;;;;;5023438;28;20053;-65
2024/03/06 02:16:56;;;;;;;25.20;12.18;;;;;;;;;;5022458;28;20140;-64
2024/03/06 02:19:22;;;;;;;28.00;11.63;;;;;;;;;;5025717;28;20061;-65
2024/03/06 02:21:48;;;;;;;22.20;10.80;;;;;;;;;;5025534;28;20041;-65
2024/03/06 02:24:15;;;;;;;17.80;10.77;;;;;;;;;;5025363;28;20080;-65
2024/03/06 02:26:41;;;;;;;25.05;11.68;;;;;;;;;;5026103;28;20045;-65
2024/03/06 02:29:07;;;;;;;22.75;11.35;;;;;;;;;;5025448;28;20107;-65
2024/03/06 02:31:33;;;;;;;18.23;11.18;;;;;;;;;;5017439;28;20493;-64
2024/03/06 02:34:04;;;;;;;23.15;11.57;;;;;;;;;;5024552;28;20135;-65
2024/03/06 02:36:31;;;;;;;18.17;10.93;;;;;;;;;;5024423;28;20380;-65
2024/03/06 02:38:57;;;;;;;19.35;11.40;;;;;;;;;;5027299;28;20064;-65
2024/03/06 02:41:23;;;;;;;19.60;11.32;;;;;;;;;;5024615;28;20041;-65
2024/03/06 02:43:49;;;;;;;23.38;11.35;;;;;;;;;;5042846;28;20042;-65
2024/03/06 02:46:15;;;;;;;16.55;10.73;;;;;;;;;;5024542;28;20056;-65
2024/03/06 02:48:42;;;;;;;20.02;11.60;;;;;;;;;;5023505;28;20045;-65
2024/03/06 02:51:08;;;;;;;19.42;10.88;;;;;;;;;;5019226;28;20413;-65
2024/03/06 02:53:34;;;;;;;22.35;11.70;;;;;;;;;;5020556;28;20068;-65
2024/03/06 02:56:00;;;;;;;25.63;11.90;;;;;;;;;;5021501;28;20104;-65
2024/03/06 02:58:30;;;;;;;19.55;11.88;;;;;;;;;;5021218;28;20054;-65
2024/03/06 03:00:56;;;;;;;23.35;12.68;;;;;;;;;;5020702;28;20102;-65
2024/03/06 03:03:24;;;;;;;21.80;11.60;;;;;;;;;;5025950;28;20485;-65
2024/03/06 03:05:51;;;;;;;19.75;12.63;;;;;;;;;;5029734;28;20409;-65
2024/03/06 03:08:17;;;;;;;21.90;12.68;;;;;;;;;;5030951;28;20069;-65
2024/03/06 03:10:44;;;;;;;25.48;12.30;;;;;;;;;;5028002;28;20044;-65
2024/03/06 03:13:10;;;;;;;21.00;12.40;;;;;;;;;;5033172;28;20059;-65
2024/03/06 03:15:37;;;;;;;23.00;12.57;;;;;;;;;;5031320;28;20041;-65
2024/03/06 03:18:03;;;;;;;21.48;12.32;;;;;;;;;;5030239;28;20076;-65
2024/03/06 03:20:29;;;;;;;20.02;11.75;;;;;;;;;;5029155;28;20049;-65
2024/03/06 03:22:55;;;;;;;18.83;11.48;;;;;;;;;;5033925;28;20045;-65
2024/03/06 03:25:21;;;;;;;22.85;12.40;;;;;;;;;;5032197;28;20064;-65
2024/03/06 03:27:48;;;;;;;20.83;12.20;;;;;;;;;;5030105;28;20048;-65
2024/03/06 03:30:15;;;;;;;26.83;13.07;;;;;;;;;;5030514;28;20057;-65
2024/03/06 03:32:41;;;;;;;22.25;12.43;;;;;;;;;;5026850;28;20049;-65
2024/03/06 03:35:08;;;;;;;22.98;12.98;;;;;;;;;;5030585;28;20141;-65
2024/03/06 03:37:35;;;;;;;24.10;13.00;;;;;;;;;;5029937;28;20053;-65
2024/03/06 03:40:01;;;;;;;21.70;11.82;;;;;;;;;;5011117;28;20045;-65
2024/03/06 03:42:27;;;;;;;20.80;12.95;;;;;;;;;;5023961;28;20141;-65
2024/03/06 03:44:53;;;;;;;19.23;11.20;;;;;;;;;;5028432;28;21198;-65
2024/03/06 03:47:19;;;;;;;22.50;12.82;;;;;;;;;;5024535;28;20287;-65
2024/03/06 03:49:46;;;;;;;22.42;12.27;;;;;;;;;;5027188;28;20041;-65
2024/03/06 03:52:12;;;;;;;17.85;11.77;;;;;;;;;;5022143;28;20041;-65
2024/03/06 03:54:38;;;;;;;22.92;13.10;;;;;;;;;;5026518;28;20074;-65
2024/03/06 03:57:06;;;;;;;22.77;13.18;;;;;;;;;;5023331;28;20037;-65
2024/03/06 03:59:32;;;;;;;22.27;12.05;;;;;;;;;;5002185;28;20105;-65
2024/03/06 04:01:58;;;;;;;22.95;12.45;;;;;;;;;;5028021;28;20049;-65
2024/03/06 04:04:25;;;;;;;20.90;12.50;;;;;;;;;;5026010;28;20072;-65
2024/03/06 04:06:51;;;;;;;21.60;12.93;;;;;;;;;;5023722;28;20164;-65
2024/03/06 04:09:18;;;;;;;21.67;13.27;;;;;;;;;;5030207;28;20037;-65
2024/03/06 04:11:44;;;;;;;21.90;13.07;;;;;;;;;;5027589;28;20095;-65
2024/03/06 04:14:11;;;;;;;25.85;12.32;;;;;;;;;;5027248;28;20748;-65
2024/03/06 04:16:38;;;;;;;21.00;12.48;;;;;;;;;;5027762;28;20048;-65
2024/03/06 04:19:04;;;;;;;23.23;13.15;;;;;;;;;;5027121;28;20124;-65
2024/03/06 04:21:30;;;;;;;21.45;12.73;;;;;;;;;;5030125;28;20100;-65
2024/03/06 04:23:58;;;;;;;21.70;12.77;;;;;;;;;;5028625;28;20110;-65
2024/03/06 04:26:24;;;;;;;23.15;14.18;;;;;;;;;;5028141;28;20065;-65
2024/03/06 04:28:50;;;;;;;20.73;12.35;;;;;;;;;;5024349;28;20115;-65
2024/03/06 04:31:16;;;;;;;21.98;12.38;;;;;;;;;;5026827;28;20049;-65
2024/03/06 04:33:42;;;;;;;22.40;13.00;;;;;;;;;;5018653;28;20045;-65
2024/03/06 04:36:09;;;;;;;22.88;13.23;;;;;;;;;;5022121;28;20041;-65
2024/03/06 04:38:35;;;;;;;23.85;12.85;;;;;;;;;;5023186;28;20373;-65
2024/03/06 04:41:01;;;;;;;23.55;13.35;;;;;;;;;;5023311;28;20144;-65
2024/03/06 04:43:27;;;;;;;22.02;13.13;;;;;;;;;;5017903;28;20042;-65
2024/03/06 04:45:53;;;;;;;22.35;13.27;;;;;;;;;;5024150;28;20045;-65
2024/03/06 04:48:20;;;;;;;23.73;13.57;;;;;;;;;;5027068;28;20095;-65
2024/03/06 04:50:46;;;;;;;23.55;13.23;;;;;;;;;;5025685;28;20069;-65
2024/03/06 04:53:12;;;;;;;21.88;13.38;;;;;;;;;;5026631;28;20041;-65
2024/03/06 04:55:39;;;;;;;23.17;12.65;;;;;;;;;;5028227;28;20175;-65
2024/03/06 04:58:05;;;;;;;25.55;13.50;;;;;;;;;;5029678;28;20061;-65
2024/03/06 05:00:31;;;;;;;24.58;14.20;;;;;;;;;;5027735;28;20037;-65
2024/03/06 05:02:57;;;;;;;22.80;13.50;;;;;;;;;;5027999;28;20052;-65
2024/03/06 05:05:24;;;;;;;24.45;14.35;;;;;;;;;;5025221;28;20046;-65
2024/03/06 05:07:51;;;;;;;28.52;13.52;;;;;;;;;;5029714;28;20076;-65
2024/03/06 05:10:18;;;;;;;25.17;14.68;;;;;;;;;;5027503;28;20122;-65
2024/03/06 05:12:44;;;;;;;25.30;13.27;;;;;;;;;;5030487;28;20611;-65
2024/03/06 05:15:11;;;;;;;22.98;13.05;;;;;;;;;;5029766;28;20476;-65
2024/03/06 05:17:37;;;;;;;28.13;13.38;;;;;;;;;;5029513;28;20055;-65
2024/03/06 05:20:04;;;;;;;22.85;13.68;;;;;;;;;;5025410;28;20103;-65
2024/03/06 05:22:30;;;;;;;21.60;13.35;;;;;;;;;;5024337;28;20471;-65
2024/03/06 05:24:58;;;;;;;25.23;14.10;;;;;;;;;;5026549;28;20049;-65
2024/03/06 05:27:24;;;;;;;21.58;14.20;;;;;;;;;;5022162;28;20158;-65
2024/03/06 05:29:51;;;;;;;21.23;13.88;;;;;;;;;;5025737;28;20079;-65
2024/03/06 05:32:17;;;;;;;23.73;15.27;;;;;;;;;;5024403;28;20065;-65
2024/03/06 05:34:44;;;;;;;23.92;14.65;;;;;;;;;;5031861;28;20045;-65
2024/03/06 05:37:10;;;;;;;25.10;13.95;;;;;;;;;;5030691;28;20048;-65
2024/03/06 05:39:38;;;;;;;26.40;14.07;;;;;;;;;;5029522;28;20124;-64
2024/03/06 05:42:05;;;;;;;24.98;14.35;;;;;;;;;;5032402;28;20478;-65
2024/03/06 05:44:32;;;;;;;27.20;14.02;;;;;;;;;;5033651;28;20128;-65
2024/03/06 05:46:59;;;;;;;25.25;14.52;;;;;;;;;;5030877;28;20453;-65
2024/03/06 05:49:25;;;;;;;22.30;13.77;;;;;;;;;;5027965;28;20041;-64
2024/03/06 05:51:52;;;;;;;27.83;14.27;;;;;;;;;;5039484;28;20060;-65
2024/03/06 05:54:19;;;;;;;24.02;14.90;;;;;;;;;;5022737;28;20056;-65
2024/03/06 05:56:45;;;;;;;25.67;13.63;;;;;;;;;;5019091;28;20124;-65
2024/03/06 05:59:11;;;;;;;24.20;14.40;;;;;;;;;;5023305;28;20124;-65
2024/03/06 06:01:37;;;;;;;22.73;14.13;;;;;;;;;;5020347;28;20090;-65
2024/03/06 06:04:04;;;;;;;27.70;15.70;;;;;;;;;;5028738;28;20065;-65
2024/03/06 06:06:30;;;;;;;24.30;15.07;;;;;;;;;;5025205;28;20466;-65
2024/03/06 06:08:56;;;;;;;25.40;14.48;;;;;;;;;;5025455;28;20389;-65
2024/03/06 06:11:22;;;;;;;28.60;15.73;;;;;;;;;;5026711;28;20055;-65
2024/03/06 06:13:48;;;;;;;25.40;14.93;;;;;;;;;;5019757;28;20054;-65
2024/03/06 06:16:14;;;;;;;25.48;15.65;;;;;;;;;;5028008;28;20487;-65
2024/03/06 06:18:41;;;;;;;27.58;14.43;;;;;;;;;;5028160;28;20101;-65
2024/03/06 06:21:08;;;;;;;25.10;15.95;;;;;;;;;;5034063;28;20648;-65
2024/03/06 06:23:35;;;;;;;25.52;15.40;;;;;;;;;;5031148;28;20041;-65
2024/03/06 06:26:01;;;;;;;24.98;15.75;;;;;;;;;;5031780;28;20045;-65
2024/03/06 06:28:28;;;;;;;30.92;15.50;;;;;;;;;;5031700;28;20049;-65
2024/03/06 06:30:54;;;;;;;30.17;16.00;;;;;;;;;;5031923;28;20650;-65
2024/03/06 06:33:20;;;;;;;26.40;14.45;;;;;;;;;;5032853;28;20103;-65
2024/03/06 06:35:47;;;;;;;28.13;14.65;;;;;;;;;;5020377;28;20090;-65
2024/03/06 06:38:13;;;;;;;29.30;14.73;;;;;;;;;;5027586;28;20058;-65
2024/03/06 06:40:41;;;;;;;28.75;16.40;;;;;;;;;;5027050;28;20584;-65
2024/03/06 06:43:07;;;;;;;29.58;15.95;;;;;;;;;;5026713;28;20061;-65
2024/03/06 06:45:33;;;;;;;32.90;16.05;;;;;;;;;;5025353;28;20041;-65
2024/03/06 06:47:59;;;;;;;27.88;15.32;;;;;;;;;;5029201;28;20041;-65
2024/03/06 06:50:25;;;;;;;28.65;14.23;;;;;;;;;;5028402;28;20433;-65
2024/03/06 06:52:52;;;;;;;25.10;15.45;;;;;;;;;;5025623;28;20434;-65
2024/03/06 06:55:20;;;;;;;30.45;15.07;;;;;;;;;;5029118;28;20052;-65
2024/03/06 06:57:46;;;;;;;29.58;16.40;;;;;;;;;;5030729;28;20475;-65
2024/03/06 07:00:13;;;;;;;26.45;15.15;;;;;;;;;;5008724;28;20093;-65
2024/03/06 07:02:40;;;;;;;30.00;16.33;;;;;;;;;;5027477;28;20527;-64
2024/03/06 07:05:08;;;;;;;29.63;14.95;;;;;;;;;;5034477;28;20041;-64
2024/03/06 07:07:34;;;;;;;32.90;16.98;;;;;;;;;;5038212;28;20461;-63
2024/03/06 07:10:01;;;;;;;28.55;16.45;;;;;;;;;;5043653;28;20044;-64
2024/03/06 07:12:28;;;;;;;31.70;17.23;;;;;;;;;;5032929;28;20061;-64
2024/03/06 07:14:54;;;;;;;32.90;17.48;;;;;;;;;;5029285;28;20094;-64
2024/03/06 07:17:20;;;;;;;33.15;16.65;;;;;;;;;;5032481;28;20053;-64
2024/03/06 07:19:46;;;;;;;30.83;18.42;;;;;;;;;;5006791;28;20045;-64
2024/03/06 07:22:13;;;;;;;39.72;18.33;;;;;;;;;;5033105;28;20370;-64
2024/03/06 07:24:41;;;;;;;31.23;18.42;;;;;;;;;;5031771;28;20473;-64
2024/03/06 07:27:08;;;;;;;33.10;17.92;;;;;;;;;;5025496;28;20057;-64
2024/03/06 07:29:35;;;;;;;31.65;16.83;;;;;;;;;;5005296;28;20041;-64
2024/03/06 07:32:01;;;;;;;34.40;16.95;;;;;;;;;;5025693;28;20188;-63
2024/03/06 07:34:28;;;;;;;32.83;17.85;;;;;;;;;;5025570;28;20444;-63
2024/03/06 07:36:54;;;;;;;30.00;16.90;;;;;;;;;;5021309;28;20122;-64
2024/03/06 07:39:21;;;;;;;32.78;18.48;;;;;;;;;;5024246;28;20167;-64
2024/03/06 07:41:47;;;;;;;32.28;17.83;;;;;;;;;;5014753;28;20042;-64
2024/03/06 07:44:13;;;;;;;30.40;18.27;;;;;;;;;;5022282;28;20492;-64
2024/03/06 07:46:40;;;;;;;35.60;18.88;;;;;;;;;;5018006;28;20045;-64
2024/03/06 07:49:06;;;;;;;31.15;18.23;;;;;;;;;;5018577;28;20605;-64
2024/03/06 07:51:33;;;;;;;29.38;17.20;;;;;;;;;;5028296;28;20112;-65
2024/03/06 07:53:59;;;;;;;30.15;16.38;;;;;;;;;;5028534;28;20056;-64
2024/03/06 07:56:26;;;;;;;31.55;18.27;;;;;;;;;;5017938;28;20041;-64
2024/03/06 07:58:53;;;;;;;30.25;17.52;;;;;;;;;;5020176;28;20045;-64
2024/03/06 08:01:20;;;;;;;31.90;18.42;;;;;;;;;;5015306;28;20056;-64
2024/03/06 08:03:47;;;;;;;34.88;18.65;;;;;;;;;;5020426;28;20424;-65
2024/03/06 08:06:15;;;;;;;33.13;17.85;;;;;;;;;;5019010;28;20053;-64
2024/03/06 08:08:43;;;;;;;31.13;18.08;;;;;;;;;;5016204;28;20046;-64
2024/03/06 08:11:11;;;;;;;32.92;18.85;;;;;;;;;;5026334;28;20046;-64
2024/03/06 08:13:37;;;;;;;39.40;19.27;;;;;;;;;;5020853;28;20180;-64
2024/03/06 08:16:04;;;;;;;35.90;18.98;;;;;;;;;;5028506;28;20068;-63
2024/03/06 08:18:30;;;;;;;39.03;20.65;;;;;;;;;;5027992;28;20052;-63
2024/03/06 08:20:57;;;;;;;34.60;18.23;;;;;;;;;;5025260;28;20394;-63
2024/03/06 08:23:24;;;;;;;34.47;17.42;;;;;;;;;;5027664;28;20052;-63
2024/03/06 08:25:52;;;;;;;35.13;19.35;;;;;;;;;;5027413;28;20107;-63
2024/03/06 08:28:18;;;;;;;32.25;17.77;;;;;;;;;;5024466;28;20049;-63
2024/03/06 08:30:45;;;;;;;34.75;19.02;;;;;;;;;;5019731;28;20088;-63
2024/03/06 08:33:11;;;;;;;35.58;17.33;;;;;;;;;;5026895;28;20068;-63
2024/03/06 08:35:38;;;;;;;33.45;18.02;;;;;;;;;;5026744;28;20133;-64
2024/03/06 08:38:05;;;;;;;32.58;18.67;;;;;;;;;;5021363;28;20041;-64
2024/03/06 08:40:32;;;;;;;31.65;17.75;;;;;;;;;;5024815;28;20033;-64
2024/03/06 08:42:58;;;;;;;36.83;18.77;;;;;;;;;;5038344;28;20115;-64
2024/03/06 08:45:24;;;;;;;30.65;17.15;;;;;;;;;;5022902;28;21802;-64
2024/03/06 08:47:53;;;;;;;32.50;17.77;;;;;;;;;;5017943;28;21308;-64
2024/03/06 08:50:20;;;;;;;32.72;16.95;;;;;;;;;;5022940;28;20120;-64
2024/03/06 08:52:46;;;;;;;36.47;18.98;;;;;;;;;;5024800;28;20048;-64
2024/03/06 08:55:12;;;;;;;34.75;17.38;;;;;;;;;;5001036;28;20520;-64
2024/03/06 08:57:39;;;;;;;33.08;18.33;;;;;;;;;;5020622;28;20560;-63
2024/03/06 09:00:10;;;;;;;31.75;16.52;;;;;;;;;;5023991;28;20374;-64
2024/03/06 09:02:38;;;;;;;37.83;18.75;;;;;;;;;;5025004;28;20041;-64
2024/03/06 09:05:04;;;;;;;39.63;17.40;;;;;;;;;;5022895;28;20064;-64
2024/03/06 09:07:31;;;;;;;39.03;18.33;;;;;;;;;;5023146;28;20075;-65
2024/03/06 09:09:57;;;;;;;33.45;17.80;;;;;;;;;;5020265;28;20496;-65
2024/03/06 09:12:23;;;;;;;36.83;18.58;;;;;;;;;;5020822;28;20117;-64
2024/03/06 09:14:49;;;;;;;36.33;19.40;;;;;;;;;;5014841;28;20127;-64
2024/03/06 09:17:15;;;;;;;39.22;19.13;;;;;;;;;;5020524;28;20041;-63
2024/03/06 09:19:42;;;;;;;43.35;19.17;;;;;;;;;;5020716;28;20119;-64
2024/03/06 09:22:08;;;;;;;38.20;19.15;;;;;;;;;;5023697;28;20045;-63
2024/03/06 09:24:36;;;;;;;44.70;18.50;;;;;;;;;;5023731;28;20045;-64
2024/03/06 09:27:03;;;;;;;45.42;21.30;;;;;;;;;;5024328;28;20057;-64
2024/03/06 09:29:29;;;;;;;39.63;20.52;;;;;;;;;;5024257;28;20045;-64
2024/03/06 09:31:55;;;;;;;44.40;21.27;;;;;;;;;;5022629;28;20056;-64
2024/03/06 09:34:22;;;;;;;44.70;22.33;;;;;;;;;;5022299;28;20111;-63
2024/03/06 09:36:49;;;;;;;46.78;21.08;;;;;;;;;;5020525;28;20054;-64
2024/03/06 09:39:16;;;;;;;43.75;19.90;;;;;;;;;;5022777;28;20041;-63
2024/03/06 09:41:45;;;;;;;50.35;20.92;;;;;;;;;;5018767;28;20096;-63
2024/03/06 09:44:13;;;;;;;48.13;20.23;;;;;;;;;;5020574;28;20381;-64
2024/03/06 09:46:44;;;;;;;44.00;21.10;;;;;;;;;;5017469;28;20045;-64
2024/03/06 09:49:10;;;;;;;42.03;19.50;;;;;;;;;;5023065;28;20159;-64
2024/03/06 09:51:38;;;;;;;45.60;21.38;;;;;;;;;;5022222;28;20038;-63
2024/03/06 09:54:07;;;;;;;48.75;20.77;;;;;;;;;;5019471;28;20057;-64
2024/03/06 09:56:33;;;;;;;45.75;21.73;;;;;;;;;;5019955;28;20065;-62
2024/03/06 09:59:00;;;;;;;41.20;21.48;;;;;;;;;;5021886;28;20052;-64
2024/03/06 10:01:26;;;;;;;49.95;21.10;;;;;;;;;;5022389;28;20056;-64
2024/03/06 10:03:52;;;;;;;42.83;20.58;;;;;;;;;;5016432;28;20045;-64
2024/03/06 10:06:19;;;;;;;46.55;21.58;;;;;;;;;;5016663;28;20465;-63
2024/03/06 10:08:46;;;;;;;53.22;21.67;;;;;;;;;;5017651;28;20056;-63
2024/03/06 10:11:12;;;;;;;53.47;21.52;;;;;;;;;;5013555;28;20853;-63
2024/03/06 10:13:39;;;;;;;41.50;20.13;;;;;;;;;;5017219;28;20045;-64
2024/03/06 10:16:08;;;;;;;48.95;20.23;;;;;;;;;;5020273;28;20033;-63
2024/03/06 10:18:34;;;;;;;41.72;19.90;;;;;;;;;;5021294;28;20045;-64
2024/03/06 10:21:01;;;;;;;42.72;20.17;;;;;;;;;;5019420;28;20053;-64
2024/03/06 10:23:30;;;;;;;42.70;20.65;;;;;;;;;;5021287;28;20165;-64
2024/03/06 10:25:56;;;;;;;45.20;19.80;;;;;;;;;;5018777;28;20136;-63
2024/03/06 10:28:23;;;;;;;42.92;20.33;;;;;;;;;;5017740;28;20049;-64
2024/03/06 10:30:50;;;;;;;42.55;19.42;;;;;;;;;;5024716;28;20068;-63
2024/03/06 10:33:19;;;;;;;39.50;20.55;;;;;;;;;;5040672;28;20167;-64
2024/03/06 10:35:46;;;;;;;43.47;20.55;;;;;;;;;;5039367;28;20156;-64
2024/03/06 10:38:13;;;;;;;47.42;21.73;;;;;;;;;;5040278;28;20072;-63
2024/03/06 10:40:40;;;;;;;46.33;22.23;;;;;;;;;;5023692;28;20094;-62
2024/03/06 10:43:07;;;;;;;45.47;22.23;;;;;;;;;;5040742;28;20056;-62
2024/03/06 10:45:33;;;;;;;46.67;22.50;;;;;;;;;;5022876;28;20175;-62
2024/03/06 10:47:59;;;;;;;49.53;21.35;;;;;;;;;;5024982;28;20041;-62
2024/03/06 10:50:26;;;;;;;43.28;21.25;;;;;;;;;;5022184;28;20601;-62
2024/03/06 10:52:55;;;;;;;43.13;20.52;;;;;;;;;;5043132;28;20128;-62
2024/03/06 10:55:22;;;;;;;41.22;21.70;;;;;;;;;;5018971;28;20049;-62
2024/03/06 10:57:49;;;;;;;45.67;21.40;;;;;;;;;;5022961;28;20561;-62
2024/03/06 11:00:18;;;;;;;49.15;22.15;;;;;;;;;;5043110;28;20041;-62
2024/03/06 11:02:49;;;;;;;47.00;21.15;;;;;;;;;;5042198;28;20083;-63
2024/03/06 11:05:15;;;;;;;45.78;22.02;;;;;;;;;;5033388;28;20048;-63
2024/03/06 11:07:43;;;;;;;45.42;21.98;;;;;;;;;;5036707;28;20265;-64
2024/03/06 11:10:16;;;;;;;54.92;24.25;;;;;;;;;;5020776;28;20046;-64
2024/03/06 11:12:44;;;;;;;51.75;22.67;;;;;;;;;;5025318;28;20190;-64
2024/03/06 11:15:12;;;;;;;55.00;23.20;;;;;;;;;;5042249;28;20489;-64
2024/03/06 11:17:38;;;;;;;51.83;24.25;;;;;;;;;;5043876;28;20138;-64
2024/03/06 11:20:06;;;;;;;55.83;24.60;;;;;;;;;;5023863;28;20262;-62
2024/03/06 11:22:50;;;;;;;44.25;22.25;;;;;;;;;;5038913;28;20105;-64
2024/03/06 11:25:35;;;;;;;52.85;22.98;;;;;;;;;;5043796;28;20423;-63
2024/03/06 11:28:03;;;;;;;55.00;25.40;;;;;;;;;;5024530;28;20036;-62
2024/03/06 11:30:31;;;;;;;58.60;24.83;;;;;;;;;;5031371;28;20057;-64
2024/03/06 11:32:58;;;;;;;48.45;21.98;;;;;;;;;;5021586;28;20052;-64
2024/03/06 11:35:24;;;;;;;44.58;21.75;;;;;;;;;;5022904;28;20050;-84
2024/03/06 11:37:52;;;;;;;45.97;23.58;;;;;;;;;;5002365;28;20094;-64
2024/03/06 11:40:24;;;;;;;46.17;24.25;;;;;;;;;;5026041;28;20081;-64
2024/03/06 11:42:52;;;;;;;49.45;21.55;;;;;;;;;;5024274;28;20143;-64
2024/03/06 11:45:22;;;;;;;42.22;22.67;;;;;;;;;;5024909;28;20049;-64
2024/03/06 11:47:58;;;;;;;46.95;21.88;;;;;;;;;;5023706;28;20049;-64
2024/03/06 11:50:26;;;;;;;40.67;21.88;;;;;;;;;;5020836;28;20049;-64
2024/03/06 11:52:52;;;;;;;46.25;23.17;;;;;;;;;;5024397;28;20168;-64
2024/03/06 11:55:19;;;;;;;47.97;24.02;;;;;;;;;;5025141;28;20453;-64
2024/03/06 11:57:47;;;;;;;45.55;20.92;;;;;;;;;;5025243;28;20137;-65
2024/03/06 12:00:14;;;;;;;52.60;24.27;;;;;;;;;;5027384;28;20401;-65
2024/03/06 12:02:41;;;;;;;41.88;21.85;;;;;;;;;;5022173;28;20041;-64
2024/03/06 12:05:10;;;;;;;42.85;22.38;;;;;;;;;;5020590;28;20057;-64
2024/03/06 12:07:49;;;;;;;46.85;22.13;;;;;;;;;;5014491;28;20064;-64
2024/03/06 12:10:17;;;;;;;40.85;21.38;;;;;;;;;;5019851;28;20477;-81
2024/03/06 12:12:44;;;;;;;51.10;24.60;;;;;;;;;;5020015;28;20330;-64
2024/03/06 12:15:11;;;;;;;45.47;23.30;;;;;;;;;;5022099;28;20622;-65
2024/03/06 12:17:51;;;;;;;41.65;21.88;;;;;;;;;;5019092;28;20117;-65
2024/03/06 12:20:18;;;;;;;43.58;23.40;;;;;;;;;;5023426;28;20086;-64
2024/03/06 12:22:45;;;;;;;44.28;23.02;;;;;;;;;;5022441;28;20053;-64
2024/03/06 12:25:19;;;;;;;50.30;25.60;;;;;;;;;;5019963;28;20513;-64
2024/03/06 12:27:45;;;;;;;;;;;;;;;;;;5024491;28;20178;-65
2024/03/06 12:30:12;;;;;;;46.17;22.95;;;;;;;;;;5023410;28;19925;-65
2024/03/06 12:32:39;;;;;;;47.83;22.85;;;;;;;;;;5023600;28;20053;-65
2024/03/06 12:35:05;;;;;;;47.42;23.38;;;;;;;;;;5021246;28;20053;-66
2024/03/06 12:37:32;;;;;;;50.50;25.27;;;;;;;;;;5024985;28;20034;-66
2024/03/06 12:39:58;;;;;;;46.20;22.23;;;;;;;;;;5026778;28;20176;-66
2024/03/06 12:42:25;;;;;;;46.72;24.08;;;;;;;;;;5021025;28;20852;-64
2024/03/06 12:44:51;;;;;;;48.58;23.45;;;;;;;;;;5025993;28;20421;-65
2024/03/06 12:47:18;;;;;;;40.80;22.17;;;;;;;;;;5024492;28;20045;-66
2024/03/06 12:49:44;;;;;;;48.63;23.40;;;;;;;;;;5023388;28;20048;-66
2024/03/06 12:52:10;;;;;;;41.63;22.10;;;;;;;;;;5023495;28;20041;-66
2024/03/06 12:54:36;;;;;;;43.08;22.52;;;;;;;;;;5028222;28;20079;-66
2024/03/06 12:57:03;;;;;;;50.30;23.60;;;;;;;;;;5029447;28;20045;-66
2024/03/06 12:59:29;;;;;;;52.83;24.80;;;;;;;;;;5025734;28;20095;-66
2024/03/06 13:01:55;;;;;;;45.08;22.13;;;;;;;;;;5031956;28;20067;-66
2024/03/06 13:04:21;;;;;;;39.92;22.48;;;;;;;;;;5032964;28;20103;-66
2024/03/06 13:06:47;;;;;;;43.45;23.15;;;;;;;;;;5009779;28;20052;-66
2024/03/06 13:09:13;;;;;;;42.92;23.92;;;;;;;;;;5035057;28;20162;-66
2024/03/06 13:11:41;;;;;;;47.03;24.75;;;;;;;;;;5025292;28;20057;-66
2024/03/06 13:14:11;;;;;;;46.08;23.27;;;;;;;;;;5018583;28;20059;-66
2024/03/06 13:16:38;;;;;;;45.65;25.23;;;;;;;;;;5017769;28;20053;-66
2024/03/06 13:19:04;;;;;;;48.25;25.30;;;;;;;;;;5019188;28;20052;-65
2024/03/06 13:21:30;;;;;;;55.55;26.65;;;;;;;;;;5021901;28;20064;-66
2024/03/06 13:23:56;;;;;;;46.40;24.10;;;;;;;;;;5017638;28;20049;-66
2024/03/06 13:26:22;;;;;;;48.55;25.35;;;;;;;;;;5015853;28;20457;-66
2024/03/06 13:28:49;;;;;;;44.38;24.05;;;;;;;;;;5019471;28;20045;-66
2024/03/06 13:31:15;;;;;;;42.88;24.15;;;;;;;;;;5023876;28;20056;-66
2024/03/06 13:33:41;;;;;;;45.88;25.92;;;;;;;;;;5022316;28;20120;-66
2024/03/06 13:36:08;;;;;;;44.70;24.88;;;;;;;;;;5022469;28;20120;-66
2024/03/06 13:38:34;;;;;;;43.22;25.40;;;;;;;;;;5024388;28;20107;-66
2024/03/06 13:41:02;;;;;;;39.78;22.88;;;;;;;;;;5029038;28;20163;-66
2024/03/06 13:43:28;;;;;;;45.22;24.42;;;;;;;;;;5037300;28;20421;-66
2024/03/06 13:45:55;;;;;;;42.05;23.55;;;;;;;;;;5028231;28;20048;-66
2024/03/06 13:48:22;;;;;;;42.42;24.55;;;;;;;;;;5035910;28;20041;-66
2024/03/06 13:50:48;;;;;;;42.00;23.13;;;;;;;;;;5031932;28;20129;-66
2024/03/06 13:53:15;;;;;;;44.25;23.75;;;;;;;;;;5030944;28;20142;-66
2024/03/06 13:55:41;;;;;;;43.33;24.60;;;;;;;;;;5037820;28;20132;-66
2024/03/06 13:58:08;;;;;;;45.58;24.92;;;;;;;;;;5032473;28;20069;-66
2024/03/06 14:00:35;;;;;;;38.05;22.67;;;;;;;;;;5024312;28;20404;-66
2024/03/06 14:03:01;;;;;;;37.65;22.27;;;;;;;;;;5023693;28;20049;-66
2024/03/06 14:05:28;;;;;;;40.45;23.10;;;;;;;;;;5021910;28;20160;-66
2024/03/06 14:07:55;;;;;;;40.45;22.48;;;;;;;;;;5022122;28;20083;-65
2024/03/06 14:10:23;;;;;;;43.03;24.83;;;;;;;;;;5026255;28;20054;-66
2024/03/06 14:12:52;;;;;;;44.95;23.65;;;;;;;;;;5026955;28;20045;-66
2024/03/06 14:15:19;;;;;;;44.08;24.52;;;;;;;;;;5025516;28;20151;-66